Time;durP1;ratioP1;P1;durP2;ratioP2;P2;SDS_P1;SDS_P2;PMS_P1;PMS_P2;Temp;Humidity;BMP_temperature;BMP_pressure;BME280_temperature;BME280_humidity;BME280_pressure;Samples;Min_cycle;Max_cycle;Signal;HPM_P1;HPM_P2
2023/06/04 00:00:53;;;;;;;3.60;1.30;;;11.10;1.00;;;;;;5056693;28;20044;-65
2023/06/04 00:03:19;;;;;;;2.42;1.30;;;11.10;1.00;;;;;;5074593;28;20120;-65
2023/06/04 00:05:44;;;;;;;5.10;1.63;;;11.10;1.00;;;;;;5074799;28;20048;-65
2023/06/04 00:08:10;;;;;;;2.63;1.30;;;11.00;1.00;;;;;;5074864;28;20500;-64
2023/06/04 00:10:35;;;;;;;1.70;1.10;;;11.00;1.00;;;;;;5056893;28;20071;-64
2023/06/04 00:13:01;;;;;;;2.63;1.33;;;10.90;3.40;;;;;;5074363;28;20496;-64
2023/06/04 00:15:27;;;;;;;4.07;1.20;;;10.90;18.00;;;;;;5074398;28;20535;-65
2023/06/04 00:17:52;;;;;;;4.00;1.13;;;10.90;14.80;;;;;;5074309;28;20089;-65
2023/06/04 00:20:21;;;;;;;3.80;1.25;;;10.90;18.40;;;;;;5056638;28;20080;-64
2023/06/04 00:22:47;;;;;;;4.53;1.33;;;10.80;19.70;;;;;;5074533;28;20093;-64
2023/06/04 00:25:13;;;;;;;3.58;1.58;;;11.30;27.00;;;;;;5073009;28;20514;-64
2023/06/04 00:27:39;;;;;;;3.38;1.45;;;10.80;26.20;;;;;;5039988;28;20489;-64
2023/06/04 00:30:05;;;;;;;3.53;1.38;;;10.80;49.80;;;;;;5055964;28;20044;-64
2023/06/04 00:32:31;;;;;;;3.25;1.38;;;10.70;67.70;;;;;;5056443;28;20504;-64
2023/06/04 00:35:01;;;;;;;2.33;1.20;;;10.80;42.30;;;;;;5056533;28;20127;-64
2023/06/04 00:37:30;;;;;;;6.50;1.70;;;10.80;34.60;;;;;;5056081;28;20036;-64
2023/06/04 00:39:56;;;;;;;3.88;1.77;;;10.70;75.70;;;;;;5072611;28;20040;-64
2023/06/04 00:42:22;;;;;;;1.90;1.10;;;10.70;68.30;;;;;;5056268;28;20075;-64
2023/06/04 00:44:48;;;;;;;3.53;1.17;;;10.70;66.70;;;;;;5056127;28;20131;-65
2023/06/04 00:47:14;;;;;;;1.98;1.30;;;10.70;66.00;;;;;;5055805;28;20075;-65
2023/06/04 00:49:41;;;;;;;1.83;1.40;;;10.70;90.50;;;;;;5055949;28;20036;-65
2023/06/04 00:52:09;;;;;;;1.98;1.33;;;10.60;99.90;;;;;;5073956;28;20084;-65
2023/06/04 00:54:36;;;;;;;9.27;1.83;;;10.60;99.90;;;;;;5073927;28;20133;-65
2023/06/04 00:57:01;;;;;;;5.45;1.83;;;10.60;95.20;;;;;;5073524;28;20062;-65
2023/06/04 00:59:31;;;;;;;3.33;1.58;;;10.60;96.60;;;;;;5073793;28;20040;-65
2023/06/04 01:02:01;;;;;;;3.13;1.50;;;10.60;96.50;;;;;;5073448;28;20041;-64
2023/06/04 01:04:33;;;;;;;2.95;1.42;;;10.60;99.00;;;;;;5055560;28;20045;-65
2023/06/04 01:07:02;;;;;;;2.72;1.40;;;10.50;99.90;;;;;;5056138;28;20041;-65
2023/06/04 01:09:32;;;;;;;9.80;1.88;;;10.50;99.90;;;;;;5073670;28;20045;-64
2023/06/04 01:11:58;;;;;;;2.30;1.60;;;10.50;99.90;;;;;;5072454;28;20056;-65
2023/06/04 01:14:25;;;;;;;5.93;1.70;;;10.40;99.90;;;;;;5073009;28;20094;-65
2023/06/04 01:17:29;;;;;;;2.35;1.42;;;10.40;99.90;;;;;;5055306;28;20045;-66
2023/06/04 01:20:00;;;;;;;2.47;1.40;;;9.80;99.90;;;;;;5060006;28;20091;-65
2023/06/04 01:22:42;;;;;;;8.32;1.63;;;10.20;99.90;;;;;;5055168;28;20087;-64
2023/06/04 01:25:23;;;;;;;3.03;1.90;;;10.20;99.90;;;;;;5054535;28;20048;-64
2023/06/04 01:27:52;;;;;;;4.82;2.10;;;10.30;99.90;;;;;;5055110;28;20040;-64
2023/06/04 01:30:28;;;;;;;5.57;2.05;;;10.30;99.90;;;;;;5055499;28;20040;-64
2023/06/04 01:32:57;;;;;;;4.13;2.15;;;10.30;99.90;;;;;;5073222;28;20499;-65
2023/06/04 01:35:23;;;;;;;3.30;1.75;;;10.20;99.90;;;;;;5073232;28;20485;-64
2023/06/04 01:37:51;;;;;;;7.65;2.33;;;10.30;99.90;;;;;;5072910;28;20043;-65
2023/06/04 01:40:17;;;;;;;6.05;2.10;;;10.20;99.90;;;;;;5073208;28;20040;-65
2023/06/04 01:42:43;;;;;;;3.63;1.73;;;10.20;1.00;;;;;;5071737;28;20036;-65
2023/06/04 01:45:10;;;;;;;2.55;1.45;;;10.10;76.70;;;;;;5072671;28;20392;-65
2023/06/04 01:47:36;;;;;;;3.33;1.80;;;10.10;99.90;;;;;;5073064;28;20043;-64
2023/06/04 01:50:09;;;;;;;3.83;1.50;;;10.10;99.90;;;;;;5072967;28;20040;-65
2023/06/04 01:52:38;;;;;;;4.72;1.75;;;10.10;99.90;;;;;;5071471;28;20054;-64
2023/06/04 01:55:09;;;;;;;2.95;1.70;;;10.20;99.90;;;;;;5039436;28;20041;-65
2023/06/04 01:57:36;;;;;;;5.07;2.00;;;10.20;99.90;;;;;;5071442;28;20121;-64
2023/06/04 02:00:04;;;;;;;4.00;2.10;;;10.10;99.90;;;;;;5054988;28;20128;-65
2023/06/04 02:02:30;;;;;;;8.07;1.70;;;10.10;99.90;;;;;;5022125;28;20036;-65
2023/06/04 02:04:56;;;;;;;4.55;2.08;;;10.70;99.90;;;;;;5072617;28;20097;-64
2023/06/04 02:07:22;;;;;;;2.55;1.45;;;10.10;1.00;;;;;;5072412;28;20032;-65
2023/06/04 02:09:48;;;;;;;7.25;1.63;;;10.00;1.00;;;;;;5054955;28;20037;-64
2023/06/04 02:12:15;;;;;;;4.97;1.80;;;10.00;77.40;;;;;;5072648;28;20075;-65
2023/06/04 02:14:41;;;;;;;4.40;2.10;;;10.00;99.90;;;;;;5072614;28;20040;-65
2023/06/04 02:17:12;;;;;;;7.55;2.08;;;10.00;99.90;;;;;;5072735;28;20071;-65
2023/06/04 02:19:44;;;;;;;4.53;1.77;;;11.40;86.10;;;;;;5038636;28;20048;-65
2023/06/04 02:22:20;;;;;;;6.25;1.75;;;10.60;99.90;;;;;;5072486;28;20066;-65
2023/06/04 02:24:47;;;;;;;4.07;1.60;;;10.80;99.90;;;;;;5071563;28;20105;-65
2023/06/04 02:27:14;;;;;;;7.13;2.40;;;10.60;99.90;;;;;;5071462;28;20511;-65
2023/06/04 02:29:40;;;;;;;4.38;1.73;;;10.30;1.00;;;;;;5072519;28;20480;-65
2023/06/04 02:32:07;;;;;;;2.45;1.48;;;11.40;65.20;;;;;;5058145;28;20078;-65
2023/06/04 02:34:36;;;;;;;3.53;1.88;;;9.90;6.30;;;;;;5076628;28;20044;-66
2023/06/04 02:37:03;;;;;;;3.05;1.75;;;12.00;62.00;;;;;;5059231;28;20087;-65
2023/06/04 02:39:29;;;;;;;2.50;1.38;;;9.90;94.60;;;;;;5058396;28;20040;-65
2023/06/04 02:41:55;;;;;;;5.30;2.05;;;9.90;1.00;;;;;;5076457;28;20086;-65
2023/06/04 02:44:20;;;;;;;2.63;1.63;;;9.80;94.50;;;;;;5076078;28;20043;-65
2023/06/04 02:46:46;;;;;;;4.68;1.90;;;9.80;99.90;;;;;;5075967;28;20048;-65
2023/06/04 02:49:16;;;;;;;3.30;1.98;;;9.80;99.90;;;;;;5076039;28;20129;-65
2023/06/04 02:51:45;;;;;;;3.85;1.75;;;9.80;99.90;;;;;;5075918;28;20037;-64
2023/06/04 02:54:14;;;;;;;5.50;1.80;;;9.80;1.00;;;;;;5075933;28;20036;-64
2023/06/04 02:56:43;;;;;;;2.83;1.83;;;9.80;99.90;;;;;;5058982;28;20119;-65
2023/06/04 02:59:09;;;;;;;3.17;1.67;;;11.10;99.90;;;;;;5076131;28;20068;-65
2023/06/04 03:01:38;;;;;;;4.85;2.03;;;9.80;99.90;;;;;;5075613;28;20044;-64
2023/06/04 03:04:04;;;;;;;4.35;1.80;;;9.80;99.90;;;;;;5057981;28;20450;-64
2023/06/04 03:06:32;;;;;;;7.25;2.05;;;9.80;99.90;;;;;;5075854;28;20067;-64
2023/06/04 03:09:01;;;;;;;4.00;1.85;;;9.80;1.00;;;;;;5075949;28;20476;-64
2023/06/04 03:11:28;;;;;;;3.25;1.70;;;9.80;99.90;;;;;;5075573;28;20153;-63
2023/06/04 03:13:53;;;;;;;2.95;1.70;;;9.90;99.90;;;;;;5075474;28;20060;-64
2023/06/04 03:16:20;;;;;;;4.80;2.40;;;9.90;1.00;;;;;;5075850;28;20063;-64
2023/06/04 03:18:46;;;;;;;4.45;2.38;;;9.80;99.90;;;;;;5057585;28;20051;-64
2023/06/04 03:21:12;;;;;;;3.75;1.88;;;9.90;21.20;;;;;;5075687;28;20044;-64
2023/06/04 03:23:41;;;;;;;5.07;2.38;;;9.80;99.90;;;;;;5057411;28;20411;-65
2023/06/04 03:26:06;;;;;;;4.93;2.50;;;9.80;99.90;;;;;;5075269;28;20051;-65
2023/06/04 03:28:33;;;;;;;6.85;2.00;;;9.80;99.90;;;;;;5075604;28;20036;-65
2023/06/04 03:30:59;;;;;;;7.18;2.25;;;9.80;1.00;;;;;;5075270;28;20039;-64
2023/06/04 03:33:25;;;;;;;3.25;1.90;;;9.80;1.00;;;;;;5057328;28;20051;-64
2023/06/04 03:35:52;;;;;;;3.13;2.08;;;9.90;1.00;;;;;;5075445;28;20040;-65
2023/06/04 03:38:18;;;;;;;4.55;2.38;;;9.90;99.90;;;;;;5075447;28;20131;-64
2023/06/04 03:40:48;;;;;;;3.22;2.20;;;9.90;99.90;;;;;;5057158;28;20480;-64
2023/06/04 03:43:14;;;;;;;5.53;2.33;;;10.00;99.90;;;;;;5074961;28;20051;-64
2023/06/04 03:45:39;;;;;;;5.15;2.08;;;10.00;99.90;;;;;;5057121;28;20430;-65
2023/06/04 03:48:05;;;;;;;4.22;2.20;;;10.00;99.90;;;;;;5057208;28;20064;-64
2023/06/04 03:50:31;;;;;;;4.55;2.42;;;10.00;99.90;;;;;;5074866;28;20040;-64
2023/06/04 03:52:56;;;;;;;2.80;1.70;;;10.00;1.00;;;;;;5074802;28;20036;-64
2023/06/04 03:55:22;;;;;;;4.85;2.00;;;10.00;99.90;;;;;;5074683;28;20040;-65
2023/06/04 03:57:48;;;;;;;4.85;2.22;;;10.00;99.90;;;;;;5074702;28;20039;-64
2023/06/04 04:00:14;;;;;;;4.82;2.13;;;10.10;99.90;;;;;;5074995;28;20120;-65
2023/06/04 04:02:40;;;;;;;4.13;2.08;;;10.10;1.00;;;;;;5074670;28;20097;-64
2023/06/04 04:05:06;;;;;;;4.05;2.00;;;10.10;1.00;;;;;;5073676;28;20508;-64
2023/06/04 04:07:32;;;;;;;4.38;1.90;;;10.10;99.90;;;;;;5074784;28;20047;-65
2023/06/04 04:09:58;;;;;;;4.70;1.95;;;10.10;1.00;;;;;;5056670;28;20055;-65
2023/06/04 04:12:26;;;;;;;9.30;2.42;;;10.10;1.00;;;;;;5074589;28;20085;-65
2023/06/04 04:14:51;;;;;;;10.63;2.55;;;10.20;99.90;;;;;;5074402;28;20113;-65
2023/06/04 04:17:17;;;;;;;7.75;2.42;;;10.20;1.00;;;;;;5074676;28;20123;-65
2023/06/04 04:19:42;;;;;;;4.50;2.45;;;10.20;17.40;;;;;;5074303;28;20052;-65
2023/06/04 04:22:10;;;;;;;5.05;2.47;;;10.30;1.00;;;;;;5074240;28;20044;-66
2023/06/04 04:24:39;;;;;;;3.45;2.00;;;10.30;1.00;;;;;;5074526;28;20054;-65
2023/06/04 04:27:05;;;;;;;4.90;2.08;;;10.60;1.00;;;;;;5074037;28;20037;-65
2023/06/04 04:29:34;;;;;;;4.57;2.05;;;10.40;1.00;;;;;;5056134;28;20048;-65
2023/06/04 04:32:11;;;;;;;4.43;2.20;;;10.40;1.00;;;;;;5074327;28;20098;-64
2023/06/04 04:34:39;;;;;;;3.42;2.03;;;10.50;1.00;;;;;;5056113;28;20037;-65
2023/06/04 04:37:08;;;;;;;4.20;1.85;;;10.90;99.90;;;;;;5055970;28;20131;-64
2023/06/04 04:39:35;;;;;;;4.40;1.92;;;10.50;99.90;;;;;;5056405;28;20377;-65
2023/06/04 04:42:10;;;;;;;4.35;1.95;;;10.60;99.90;;;;;;5074094;28;20128;-65
2023/06/04 04:44:35;;;;;;;2.60;1.73;;;10.70;99.90;;;;;;5055897;28;20051;-65
2023/06/04 04:47:07;;;;;;;3.03;2.10;;;10.70;99.90;;;;;;5073966;28;20476;-65
2023/06/04 04:49:32;;;;;;;5.13;2.20;;;10.70;99.90;;;;;;5055801;28;20032;-64
2023/06/04 04:51:58;;;;;;;4.05;1.70;;;10.80;99.90;;;;;;5073618;28;20090;-65
2023/06/04 04:54:24;;;;;;;3.60;1.98;;;10.80;99.90;;;;;;5073133;28;20101;-65
2023/06/04 04:56:49;;;;;;;3.30;1.90;;;10.80;92.80;;;;;;5073759;28;20055;-64
2023/06/04 04:59:15;;;;;;;4.03;2.03;;;10.90;99.90;;;;;;5055454;28;20469;-65
2023/06/04 05:01:40;;;;;;;3.85;2.20;;;11.00;1.00;;;;;;5072589;28;20040;-65
2023/06/04 05:04:06;;;;;;;5.65;2.20;;;12.40;1.00;;;;;;5073450;28;20048;-65
2023/06/04 05:06:32;;;;;;;5.47;2.58;;;11.10;1.00;;;;;;5073339;28;20036;-64
2023/06/04 05:08:57;;;;;;;2.83;1.90;;;11.20;1.00;;;;;;5055423;28;20078;-65
2023/06/04 05:11:23;;;;;;;5.05;2.40;;;11.20;1.00;;;;;;5073613;28;20034;-65
2023/06/04 05:13:48;;;;;;;5.25;2.92;;;11.30;99.90;;;;;;5055226;28;20048;-65
2023/06/04 05:16:14;;;;;;;4.60;2.58;;;11.40;99.90;;;;;;5073537;28;20472;-64
2023/06/04 05:18:44;;;;;;;3.58;2.28;;;11.40;99.90;;;;;;5073548;28;20040;-64
2023/06/04 05:21:11;;;;;;;4.57;2.50;;;11.80;1.00;;;;;;5073414;28;20174;-64
2023/06/04 05:23:38;;;;;;;8.38;3.22;;;11.60;99.90;;;;;;5073049;28;20277;-64
2023/06/04 05:26:05;;;;;;;6.35;2.42;;;11.70;1.00;;;;;;5055315;28;20045;-64
2023/06/04 05:28:33;;;;;;;4.43;2.90;;;12.10;99.90;;;;;;5055260;28;20120;-64
2023/06/04 05:30:59;;;;;;;5.45;2.22;;;11.90;99.90;;;;;;5073257;28;20451;-64
2023/06/04 05:33:30;;;;;;;7.40;2.78;;;12.00;60.80;;;;;;5055409;28;20032;-64
2023/06/04 05:35:57;;;;;;;;;;;12.10;1.00;;;;;;5072339;28;20048;-64
2023/06/04 05:38:25;;;;;;;6.65;2.72;;;12.20;20.90;;;;;;5073218;28;20292;-64
2023/06/04 05:40:55;;;;;;;8.20;2.83;;;12.30;1.00;;;;;;5072841;28;20048;-64
2023/06/04 05:43:21;;;;;;;6.40;2.75;;;12.80;99.90;;;;;;5073164;28;20133;-64
2023/06/04 05:45:47;;;;;;;6.10;2.47;;;12.50;6.40;;;;;;5054872;28;20116;-64
2023/06/04 05:48:13;;;;;;;5.20;2.63;;;12.70;99.90;;;;;;5054847;28;20037;-64
2023/06/04 05:50:38;;;;;;;4.15;2.53;;;13.70;96.80;;;;;;5072987;28;20037;-64
2023/06/04 05:53:04;;;;;;;5.18;2.45;;;12.90;99.90;;;;;;5054904;28;20032;-64
2023/06/04 05:55:30;;;;;;;7.55;2.47;;;13.00;1.00;;;;;;5073047;28;20111;-64
2023/06/04 05:57:56;;;;;;;6.55;2.83;;;13.10;5.20;;;;;;5054680;28;20046;-64
2023/06/04 06:00:22;;;;;;;5.93;2.72;;;13.30;99.90;;;;;;5055019;28;20554;-64
2023/06/04 06:02:49;;;;;;;4.07;1.90;;;13.40;99.90;;;;;;5072825;28;20041;-65
2023/06/04 06:05:15;;;;;;;5.32;1.60;;;13.50;99.90;;;;;;5072869;28;20124;-64
2023/06/04 06:07:42;;;;;;;5.63;1.40;;;13.40;20.80;;;;;;5072781;28;20084;-65
2023/06/04 06:10:08;;;;;;;2.85;1.58;;;13.70;99.90;;;;;;5072877;28;20116;-64
2023/06/04 06:12:33;;;;;;;5.35;1.20;;;13.40;85.60;;;;;;5054439;28;20060;-64
2023/06/04 06:14:59;;;;;;;5.55;1.63;;;13.40;57.40;;;;;;5072825;28;20036;-64
2023/06/04 06:17:25;;;;;;;3.00;1.30;;;13.50;62.30;;;;;;5072762;28;20511;-64
2023/06/04 06:19:52;;;;;;;7.10;1.67;;;13.40;1.00;;;;;;5071416;28;20099;-64
2023/06/04 06:22:18;;;;;;;7.53;1.58;;;13.40;99.90;;;;;;5072946;28;20037;-64
2023/06/04 06:24:43;;;;;;;3.30;1.42;;;13.40;1.00;;;;;;5072695;28;20392;-64
2023/06/04 06:27:10;;;;;;;7.43;2.13;;;13.50;99.90;;;;;;5054444;28;20544;-65
2023/06/04 06:29:36;;;;;;;2.83;1.40;;;13.40;99.90;;;;;;5072764;28;20377;-63
2023/06/04 06:32:02;;;;;;;2.88;1.80;;;13.50;99.90;;;;;;5054427;28;20048;-64
2023/06/04 06:34:37;;;;;;;4.53;1.55;;;13.50;1.00;;;;;;5072554;28;20043;-64
2023/06/04 06:37:04;;;;;;;3.13;1.80;;;13.50;99.90;;;;;;5072311;28;20400;-65
2023/06/04 06:39:29;;;;;;;7.20;2.90;;;13.40;99.90;;;;;;5072549;28;20082;-64
2023/06/04 06:41:55;;;;;;;7.72;1.88;;;13.40;89.00;;;;;;5072234;28;20435;-64
2023/06/04 06:44:21;;;;;;;7.90;2.10;;;13.50;87.40;;;;;;5072568;28;20040;-65
2023/06/04 06:46:48;;;;;;;9.00;2.42;;;13.80;99.90;;;;;;5054127;28;20044;-64
2023/06/04 06:49:15;;;;;;;4.22;1.92;;;13.90;99.90;;;;;;5072457;28;20090;-65
2023/06/04 06:51:40;;;;;;;4.63;1.63;;;14.80;99.90;;;;;;5072393;28;20056;-64
2023/06/04 06:54:08;;;;;;;4.75;2.25;;;14.00;99.90;;;;;;5072367;28;20037;-65
2023/06/04 06:56:34;;;;;;;4.65;2.03;;;14.20;99.90;;;;;;5072102;28;20044;-64
2023/06/04 06:59:00;;;;;;;2.97;1.70;;;14.80;99.90;;;;;;5070376;28;20511;-65
2023/06/04 07:01:26;;;;;;;3.05;1.80;;;14.40;99.90;;;;;;5072044;28;20044;-65
2023/06/04 07:03:52;;;;;;;5.20;2.00;;;14.60;1.00;;;;;;5071852;28;20076;-65
2023/06/04 07:06:17;;;;;;;2.75;1.55;;;14.60;1.00;;;;;;5037638;28;20146;-67
2023/06/04 07:08:43;;;;;;;2.70;1.50;;;14.80;99.90;;;;;;5072232;28;20029;-66
2023/06/04 07:11:11;;;;;;;2.63;1.58;;;15.00;99.90;;;;;;5053903;28;20051;-65
2023/06/04 07:13:38;;;;;;;3.47;1.42;;;15.00;99.90;;;;;;5071703;28;20056;-64
2023/06/04 07:16:04;;;;;;;3.55;1.90;;;15.20;99.90;;;;;;5072508;28;20614;-70
2023/06/04 07:18:29;;;;;;;3.65;1.70;;;15.30;99.90;;;;;;5057767;28;20060;-64
2023/06/04 07:20:55;;;;;;;7.28;1.83;;;15.90;99.90;;;;;;5075525;28;20064;-64
2023/06/04 07:23:21;;;;;;;2.83;1.30;;;15.90;99.90;;;;;;5075249;28;20048;-65
2023/06/04 07:25:47;;;;;;;3.38;1.27;;;15.90;1.00;;;;;;5075142;28;20036;-64
2023/06/04 07:28:12;;;;;;;7.13;1.35;;;15.90;99.90;;;;;;5075564;28;20032;-64
2023/06/04 07:30:38;;;;;;;3.08;1.30;;;16.00;99.90;;;;;;5040695;28;20040;-69
2023/06/04 07:33:04;;;;;;;4.63;1.45;;;16.40;99.90;;;;;;5075384;28;20075;-70
2023/06/04 07:35:30;;;;;;;2.58;1.55;;;16.20;99.90;;;;;;5040562;28;20041;-65
2023/06/04 07:37:55;;;;;;;3.03;1.65;;;16.30;99.90;;;;;;5075363;28;20032;-65
2023/06/04 07:40:21;;;;;;;5.30;1.35;;;16.40;99.90;;;;;;5075140;28;20496;-66
2023/06/04 07:42:48;;;;;;;6.25;1.83;;;16.60;99.90;;;;;;5075336;28;20043;-64
2023/06/04 07:45:14;;;;;;;2.78;0.98;;;16.50;99.90;;;;;;5074624;28;20048;-64
2023/06/04 07:47:39;;;;;;;1.65;1.00;;;16.70;99.90;;;;;;5074840;28;20051;-65
2023/06/04 07:50:06;;;;;;;2.65;1.10;;;17.70;99.90;;;;;;5074833;28;20033;-64
2023/06/04 07:52:32;;;;;;;1.42;1.02;;;17.00;99.90;;;;;;5074735;28;20044;-65
2023/06/04 07:54:59;;;;;;;4.45;1.30;;;17.10;99.90;;;;;;5075063;28;20029;-65
2023/06/04 07:57:24;;;;;;;2.65;1.08;;;17.50;99.60;;;;;;5073493;28;20144;-65
2023/06/04 07:59:53;;;;;;;5.25;1.13;;;17.70;92.10;;;;;;5075006;28;20505;-64
2023/06/04 08:02:19;;;;;;;4.15;1.13;;;17.20;92.20;;;;;;5074637;28;20051;-64
2023/06/04 08:04:46;;;;;;;1.88;0.95;;;18.40;86.80;;;;;;5074527;28;20036;-64
2023/06/04 08:07:12;;;;;;;4.57;1.25;;;17.40;82.10;;;;;;5074808;28;20052;-64
2023/06/04 08:09:38;;;;;;;1.48;0.90;;;17.50;82.90;;;;;;5074815;28;20365;-64
2023/06/04 08:12:04;;;;;;;1.70;0.95;;;17.60;80.10;;;;;;5074379;28;20102;-64
2023/06/04 08:14:30;;;;;;;2.67;0.90;;;17.80;75.90;;;;;;5074280;28;20052;-65
2023/06/04 08:16:56;;;;;;;1.50;0.80;;;17.70;69.00;;;;;;5074315;28;20036;-65
2023/06/04 08:19:23;;;;;;;1.20;0.73;;;17.90;62.40;;;;;;5056437;28;20052;-65
2023/06/04 08:21:49;;;;;;;1.02;0.63;;;17.80;50.70;;;;;;5074662;28;20398;-64
2023/06/04 08:24:15;;;;;;;3.22;0.93;;;17.90;48.60;;;;;;5073019;28;20075;-68
2023/06/04 08:26:41;;;;;;;5.43;1.00;;;17.90;41.70;;;;;;5074104;28;20076;-68
2023/06/04 08:29:07;;;;;;;2.42;0.75;;;17.90;45.60;;;;;;5073030;28;20111;-64
2023/06/04 08:31:33;;;;;;;1.63;0.85;;;17.80;44.00;;;;;;5072813;28;20067;-65
2023/06/04 08:33:59;;;;;;;4.55;1.27;;;17.60;42.70;;;;;;5074348;28;20115;-65
2023/06/04 08:36:25;;;;;;;0.98;0.68;;;18.10;47.40;;;;;;5056025;28;20409;-65
2023/06/04 08:38:52;;;;;;;2.13;0.88;;;18.20;48.70;;;;;;5073987;28;20210;-68
2023/06/04 08:41:36;;;;;;;3.40;1.58;;;18.20;45.90;;;;;;5074316;28;20036;-67
2023/06/04 08:44:06;;;;;;;1.73;0.90;;;18.40;48.70;;;;;;5074160;28;20111;-69
2023/06/04 08:46:32;;;;;;;1.70;1.20;;;18.40;49.70;;;;;;5074043;28;20427;-68
2023/06/04 08:49:02;;;;;;;1.38;0.65;;;18.40;48.20;;;;;;5074138;28;20044;-68
2023/06/04 08:51:33;;;;;;;1.13;0.70;;;18.50;41.90;;;;;;5055953;28;20033;-68
2023/06/04 08:53:59;;;;;;;1.85;0.70;;;18.60;41.80;;;;;;5073724;28;20089;-68
2023/06/04 08:56:28;;;;;;;3.78;0.95;;;18.70;41.60;;;;;;5073660;28;20036;-68
2023/06/04 08:59:02;;;;;;;1.23;0.73;;;18.70;34.80;;;;;;5056065;28;20041;-69
2023/06/04 09:01:29;;;;;;;2.40;1.05;;;18.50;23.40;;;;;;5055895;28;20492;-68
2023/06/04 09:03:55;;;;;;;3.55;0.80;;;18.60;26.90;;;;;;5073699;28;20032;-68
2023/06/04 09:06:26;;;;;;;1.30;0.70;;;18.70;25.20;;;;;;5073405;28;20078;-68
2023/06/04 09:08:57;;;;;;;0.75;0.65;;;18.80;26.10;;;;;;5073667;28;20110;-68
2023/06/04 09:11:25;;;;;;;1.35;0.60;;;18.80;25.50;;;;;;5073697;28;20082;-69
2023/06/04 09:13:52;;;;;;;2.53;0.60;;;18.80;24.50;;;;;;5055296;28;20106;-68
2023/06/04 09:16:18;;;;;;;3.97;0.93;;;18.90;23.40;;;;;;5073546;28;20044;-68
2023/06/04 09:18:45;;;;;;;2.70;0.82;;;18.90;23.60;;;;;;5072024;28;20059;-68
2023/06/04 09:21:10;;;;;;;1.13;0.60;;;20.20;20.80;;;;;;5071917;28;20463;-67
2023/06/04 09:23:47;;;;;;;0.90;0.70;;;19.00;22.50;;;;;;5073448;28;20079;-65
2023/06/04 09:26:12;;;;;;;2.47;0.60;;;19.00;19.40;;;;;;5072794;28;20044;-64
2023/06/04 09:28:42;;;;;;;2.05;0.52;;;19.00;16.70;;;;;;5073059;28;20081;-65
2023/06/04 09:31:09;;;;;;;1.75;0.80;;;18.70;12.00;;;;;;5055249;28;20036;-65
2023/06/04 09:33:45;;;;;;;2.28;0.70;;;18.90;14.80;;;;;;5073088;28;20036;-64
2023/06/04 09:36:11;;;;;;;3.33;1.00;;;19.00;13.20;;;;;;5072807;28;20085;-66
2023/06/04 09:38:38;;;;;;;2.42;1.10;;;19.10;14.30;;;;;;5054926;28;20509;-64
2023/06/04 09:41:05;;;;;;;1.20;0.80;;;20.00;15.80;;;;;;5072744;28;20075;-66
2023/06/04 09:43:35;;;;;;;2.58;0.95;;;19.20;16.60;;;;;;5054810;28;20041;-65
2023/06/04 09:46:14;;;;;;;1.83;0.90;;;19.30;15.80;;;;;;5073042;28;20040;-65
2023/06/04 09:48:40;;;;;;;1.77;1.00;;;19.30;13.20;;;;;;5072760;28;20119;-65
2023/06/04 09:51:19;;;;;;;1.30;0.82;;;19.30;12.60;;;;;;5073035;28;20048;-65
2023/06/04 09:53:55;;;;;;;1.17;0.75;;;19.20;9.90;;;;;;5054847;28;20101;-65
2023/06/04 09:56:21;;;;;;;1.40;0.60;;;19.30;11.50;;;;;;5072926;28;20189;-65
2023/06/04 09:58:49;;;;;;;1.80;0.93;;;19.30;11.80;;;;;;5071992;28;20485;-65
2023/06/04 10:01:15;;;;;;;2.70;0.95;;;19.30;9.10;;;;;;5072778;28;20550;-67
2023/06/04 10:03:46;;;;;;;1.10;0.65;;;19.30;10.80;;;;;;5072857;28;20408;-66
2023/06/04 10:06:14;;;;;;;;;;;19.40;11.50;;;;;;5072903;28;20045;-66
2023/06/04 10:08:42;;;;;;;2.15;0.88;;;19.40;10.00;;;;;;5072569;28;19923;-66
2023/06/04 10:11:10;;;;;;;1.20;0.80;;;19.50;12.30;;;;;;5072566;28;20036;-66
2023/06/04 10:13:45;;;;;;;1.10;0.68;;;19.90;22.00;;;;;;5072696;28;20060;-66
2023/06/04 10:16:11;;;;;;;2.25;0.70;;;19.70;11.00;;;;;;5071262;28;20044;-67
2023/06/04 10:18:37;;;;;;;0.73;0.40;;;19.70;10.10;;;;;;5072832;28;20119;-70
2023/06/04 10:21:04;;;;;;;1.05;0.68;;;19.70;11.50;;;;;;5071191;28;20036;-67
2023/06/04 10:23:30;;;;;;;2.35;0.90;;;19.60;7.60;;;;;;5054783;28;20044;-68
2023/06/04 10:25:57;;;;;;;1.30;0.68;;;19.70;8.90;;;;;;5072555;28;20452;-68
2023/06/04 10:28:23;;;;;;;0.85;0.60;;;19.60;9.70;;;;;;5071469;28;20392;-69
2023/06/04 10:30:51;;;;;;;1.48;0.60;;;19.60;9.20;;;;;;5038318;28;20381;-69
2023/06/04 10:33:23;;;;;;;0.82;0.50;;;19.70;11.50;;;;;;5054655;28;20047;-71
2023/06/04 10:35:53;;;;;;;1.98;1.10;;;19.60;9.70;;;;;;5054696;28;20511;-67
2023/06/04 10:38:21;;;;;;;0.57;0.50;;;19.80;7.80;;;;;;5072593;28;20047;-67
2023/06/04 10:40:47;;;;;;;1.27;0.70;;;19.70;9.90;;;;;;5072490;28;20389;-68
2023/06/04 10:43:15;;;;;;;2.83;0.60;;;19.70;9.60;;;;;;5071223;28;20404;-69
2023/06/04 10:45:42;;;;;;;1.55;0.70;;;19.70;20.00;;;;;;5072191;28;20408;-68
2023/06/04 10:48:09;;;;;;;1.63;0.80;;;19.70;9.00;;;;;;5072527;28;20447;-68
2023/06/04 10:50:48;;;;;;;0.98;0.65;;;20.10;8.80;;;;;;5054273;28;20122;-66
2023/06/04 10:53:13;;;;;;;1.83;0.45;;;19.70;8.40;;;;;;5074715;28;20046;-67
2023/06/04 10:55:47;;;;;;;1.25;0.68;;;19.90;9.20;;;;;;5076247;28;20028;-67
2023/06/04 10:58:13;;;;;;;1.35;0.43;;;19.70;7.60;;;;;;5076191;28;20036;-67
2023/06/04 11:00:41;;;;;;;1.85;0.70;;;19.80;8.20;;;;;;5057990;28;20062;-67
2023/06/04 11:03:07;;;;;;;1.85;0.55;;;19.80;7.90;;;;;;5058086;28;20047;-67
2023/06/04 11:05:35;;;;;;;1.60;0.70;;;19.80;5.70;;;;;;5075686;28;20047;-67
2023/06/04 11:08:02;;;;;;;1.00;0.70;;;19.80;6.90;;;;;;5057784;28;20080;-69
2023/06/04 11:10:36;;;;;;;0.88;0.50;;;19.80;6.30;;;;;;5075900;28;20106;-67
2023/06/04 11:13:03;;;;;;;1.33;0.68;;;19.70;5.10;;;;;;5075487;28;20092;-67
2023/06/04 11:15:48;;;;;;;0.85;0.68;;;19.70;6.00;;;;;;5057625;28;20037;-71
2023/06/04 11:18:18;;;;;;;2.05;0.93;;;20.30;5.10;;;;;;5075478;28;20068;-75
2023/06/04 11:20:45;;;;;;;;;;;20.30;6.90;;;;;;5058456;28;20037;-66
2023/06/04 11:23:13;;;;;;;1.13;0.70;;;19.90;6.60;;;;;;5075755;28;19967;-72
2023/06/04 11:25:39;;;;;;;1.20;0.80;;;19.90;6.90;;;;;;5057132;28;20078;-68
2023/06/04 11:28:05;;;;;;;1.98;0.63;;;20.00;14.30;;;;;;5075601;28;20044;-68
2023/06/04 11:30:30;;;;;;;1.65;0.70;;;20.10;7.50;;;;;;5075647;28;20036;-68
2023/06/04 11:33:06;;;;;;;1.77;0.77;;;20.30;8.40;;;;;;5057440;28;20111;-68
2023/06/04 11:35:40;;;;;;;0.90;0.50;;;20.10;7.40;;;;;;5075834;28;20464;-68
2023/06/04 11:38:05;;;;;;;2.25;0.80;;;20.10;8.80;;;;;;5057323;28;20045;-68
2023/06/04 11:40:31;;;;;;;1.90;0.90;;;20.10;9.30;;;;;;5057139;28;20161;-69
2023/06/04 11:42:57;;;;;;;1.08;0.60;;;20.10;10.00;;;;;;5057122;28;20068;-68
2023/06/04 11:45:23;;;;;;;2.78;0.80;;;20.20;10.80;;;;;;5057160;28;20484;-69
2023/06/04 11:47:53;;;;;;;1.48;0.70;;;20.20;9.70;;;;;;5075320;28;20052;-69
2023/06/04 11:50:20;;;;;;;1.63;0.70;;;20.20;9.50;;;;;;5057065;28;20046;-69
2023/06/04 11:52:46;;;;;;;2.65;0.90;;;20.30;9.60;;;;;;5056950;28;20051;-69
2023/06/04 11:55:12;;;;;;;1.38;0.75;;;20.30;9.80;;;;;;5075181;28;20033;-69
2023/06/04 11:57:39;;;;;;;1.35;0.70;;;20.20;9.70;;;;;;5056954;28;20121;-69
2023/06/04 12:00:11;;;;;;;4.15;0.90;;;20.30;11.30;;;;;;5074870;28;20044;-69
2023/06/04 12:02:52;;;;;;;1.30;0.70;;;20.40;12.00;;;;;;5074524;28;20476;-68
2023/06/04 12:05:20;;;;;;;1.85;0.70;;;20.40;8.50;;;;;;5075033;28;20469;-69
2023/06/04 12:07:47;;;;;;;0.90;0.68;;;20.30;20.40;;;;;;5056628;28;20143;-68
2023/06/04 12:10:13;;;;;;;3.25;1.00;;;20.40;11.20;;;;;;5056797;28;20067;-69
2023/06/04 12:12:42;;;;;;;3.70;0.90;;;20.40;11.40;;;;;;5074437;28;20045;-69
2023/06/04 12:15:09;;;;;;;1.60;0.75;;;20.50;12.80;;;;;;5056675;28;20044;-69
2023/06/04 12:17:48;;;;;;;1.20;0.75;;;20.50;12.40;;;;;;5074460;28;20048;-69
2023/06/04 12:20:14;;;;;;;2.22;0.82;;;20.60;13.60;;;;;;5072544;28;20037;-69
2023/06/04 12:22:46;;;;;;;2.13;0.98;;;20.70;13.90;;;;;;5074626;28;20109;-68
2023/06/04 12:25:23;;;;;;;2.30;0.75;;;20.40;12.80;;;;;;5074324;28;20086;-68
2023/06/04 12:27:48;;;;;;;2.63;0.88;;;20.70;14.00;;;;;;5074470;28;20479;-70
2023/06/04 12:30:15;;;;;;;1.13;0.68;;;20.70;14.00;;;;;;5056216;28;20046;-69
2023/06/04 12:32:42;;;;;;;0.82;0.60;;;20.60;13.70;;;;;;5074198;28;20061;-69
2023/06/04 12:35:08;;;;;;;1.92;0.88;;;20.50;12.50;;;;;;5074378;28;20388;-69
2023/06/04 12:37:33;;;;;;;1.23;0.68;;;20.50;12.20;;;;;;5074287;28;20127;-70
2023/06/04 12:39:59;;;;;;;2.13;1.33;;;20.60;12.60;;;;;;5074159;28;20507;-70
2023/06/04 12:42:27;;;;;;;2.22;1.27;;;20.50;12.30;;;;;;5056447;28;20040;-69
2023/06/04 12:44:53;;;;;;;0.95;0.75;;;20.60;12.30;;;;;;5073825;28;20048;-70
2023/06/04 12:47:20;;;;;;;1.35;0.80;;;20.60;13.10;;;;;;5055849;28;20051;-70
2023/06/04 12:49:46;;;;;;;1.38;0.90;;;20.50;12.20;;;;;;5073948;28;20032;-70
2023/06/04 12:52:13;;;;;;;1.60;0.93;;;20.50;12.00;;;;;;5055854;28;20064;-70